createdAt,value
2018-11-01T00:00:18.708Z,101626.83
2018-11-01T00:02:47.637Z,101626.95
2018-11-01T00:05:16.647Z,101618.77
2018-11-01T00:07:45.674Z,101619.00
2018-11-01T00:10:14.557Z,101618.53
2018-11-01T00:12:44.243Z,101615.15
2018-11-01T00:15:14.187Z,101613.36
2018-11-01T00:17:42.871Z,101618.00
2018-11-01T00:20:12.871Z,101616.13
2018-11-01T00:22:42.294Z,101616.36
2018-11-01T00:25:12.198Z,101612.48
2018-11-01T00:27:41.478Z,101609.48
2018-11-01T00:30:11.046Z,101612.41
2018-11-01T00:32:39.824Z,101603.23
2018-11-01T00:35:09.120Z,101602.48
2018-11-01T00:37:37.939Z,101606.81
2018-11-01T00:40:09.254Z,101612.59
2018-11-01T00:42:37.962Z,101621.62
2018-11-01T00:45:07.295Z,101619.41
2018-11-01T00:47:36.102Z,101623.86
2018-11-01T00:50:05.114Z,101614.69
2018-11-01T00:52:33.881Z,101617.47
2018-11-01T00:55:02.563Z,101615.34
2018-11-01T00:57:31.355Z,101616.86
2018-11-01T01:00:00.191Z,101619.00
2018-11-01T01:02:28.922Z,101624.78
2018-11-01T01:04:57.602Z,101627.71
2018-11-01T01:07:26.365Z,101629.99
2018-11-01T01:09:55.088Z,101631.90
2018-11-01T01:12:23.790Z,101629.73
2018-11-01T01:14:52.640Z,101620.45
2018-11-01T01:17:21.338Z,101620.75
2018-11-01T01:19:50.022Z,101620.40
2018-11-01T01:22:18.758Z,101609.52
2018-11-01T01:24:47.438Z,101615.05
2018-11-01T01:27:16.130Z,101607.16
2018-11-01T01:29:44.845Z,101601.08
2018-11-01T01:32:13.561Z,101597.69
2018-11-01T01:34:42.366Z,101595.89
2018-11-01T01:37:11.095Z,101596.35
2018-11-01T01:39:39.812Z,101595.89
2018-11-01T01:42:08.562Z,101595.75
2018-11-01T01:44:37.280Z,101595.29
2018-11-01T01:47:06.442Z,101592.28
2018-11-01T01:49:35.118Z,101596.08
2018-11-01T01:52:03.944Z,101594.37
2018-11-01T01:54:32.679Z,101597.30
2018-11-01T01:57:01.457Z,101595.78
2018-11-01T01:59:30.555Z,101595.78
2018-11-01T02:01:59.255Z,101593.84
2018-11-01T02:04:27.893Z,101602.63
2018-11-01T02:06:56.674Z,101596.69
2018-11-01T02:09:25.359Z,101589.77
2018-11-01T02:11:54.157Z,101593.95
2018-11-01T02:14:23.059Z,101588.29
2018-11-01T02:16:51.735Z,101581.98
2018-11-01T02:19:20.423Z,101570.29
2018-11-01T02:21:49.157Z,101568.62
2018-11-01T02:24:17.846Z,101572.99
2018-11-01T02:26:46.783Z,101565.39
2018-11-01T02:29:15.906Z,101561.47
2018-11-01T02:31:44.593Z,101562.69
2018-11-01T02:34:13.291Z,101555.69
2018-11-01T02:36:42.026Z,101549.48
2018-11-01T02:39:12.091Z,101546.10
2018-11-01T02:41:41.102Z,101539.10
2018-11-01T02:44:10.326Z,101536.97
2018-11-01T02:46:39.021Z,101524.87
2018-11-01T02:49:08.489Z,101517.88
2018-11-01T02:51:38.338Z,101508.79
2018-11-01T02:54:07.414Z,101508.45
2018-11-01T02:56:36.093Z,101507.39
2018-11-01T02:59:04.846Z,101504.19
2018-11-01T03:01:33.549Z,101504.27
2018-11-01T03:04:02.245Z,101508.79
2018-11-01T03:06:31.691Z,101509.70
2018-11-01T03:09:00.367Z,101514.50
2018-11-01T03:11:29.123Z,101521.80
2018-11-01T03:13:57.878Z,101529.09
2018-11-01T03:16:26.586Z,101517.41
2018-11-01T03:18:55.315Z,101520.48
2018-11-01T03:21:24.063Z,101507.41
2018-11-01T03:23:52.790Z,101515.48
2018-11-01T03:26:21.507Z,101515.41
2018-11-01T03:28:50.348Z,101522.36
2018-11-01T03:31:19.009Z,101522.73
2018-11-01T03:33:47.726Z,101521.21
2018-11-01T03:36:16.536Z,101511.36
2018-11-01T03:38:45.289Z,101512.64
2018-11-01T03:41:13.972Z,101518.64
2018-11-01T03:43:42.869Z,101516.00
2018-11-01T03:46:11.734Z,101512.69
2018-11-01T03:48:40.424Z,101515.02
2018-11-01T03:51:09.159Z,101516.38
2018-11-01T03:53:38.017Z,101507.59
2018-11-01T03:56:06.664Z,101509.42
2018-11-01T03:58:35.623Z,101500.72
2018-11-01T04:01:04.335Z,101505.16
2018-11-01T04:03:33.035Z,101502.92
2018-11-01T04:06:01.812Z,101505.02
2018-11-01T04:08:30.527Z,101499.62
2018-11-01T04:10:59.237Z,101490.61
2018-11-01T04:13:28.076Z,101481.48
2018-11-01T04:15:56.847Z,101486.89
2018-11-01T04:18:25.519Z,101489.89
2018-11-01T04:20:54.334Z,101488.72
2018-11-01T04:23:23.207Z,101482.78
2018-11-01T04:25:54.729Z,101480.73
2018-11-01T04:28:23.537Z,101482.81
2018-11-01T04:30:52.271Z,101478.75
2018-11-01T04:33:21.058Z,101481.73
2018-11-01T04:35:49.802Z,101480.68
2018-11-01T04:38:18.537Z,101479.69
2018-11-01T04:40:47.324Z,101477.90
2018-11-01T04:43:16.265Z,101470.06
2018-11-01T04:45:45.003Z,101469.72
2018-11-01T04:48:13.854Z,101473.25
2018-11-01T04:50:42.687Z,101462.69
2018-11-01T04:53:11.353Z,101466.79
2018-11-01T04:55:40.032Z,101462.67
2018-11-01T04:58:08.856Z,101461.16
2018-11-01T05:00:37.859Z,101459.87
2018-11-01T05:03:06.799Z,101448.92
2018-11-01T05:05:35.564Z,101454.88
2018-11-01T05:08:04.294Z,101454.89
2018-11-01T05:10:33.012Z,101449.16
2018-11-01T05:13:02.017Z,101445.59
2018-11-01T05:15:30.692Z,101451.23
2018-11-01T05:17:59.348Z,101462.47
2018-11-01T05:20:28.051Z,101460.08
2018-11-01T05:22:56.819Z,101464.25
2018-11-01T05:25:32.536Z,101467.64
2018-11-01T05:28:01.905Z,101459.73
2018-11-01T05:30:30.639Z,101461.59
2018-11-01T05:32:59.634Z,101457.08
2018-11-01T05:35:28.331Z,101460.27
2018-11-01T05:37:57.024Z,101452.61
2018-11-01T05:40:25.746Z,101451.38
2018-11-01T05:42:54.467Z,101447.43
2018-11-01T05:45:23.152Z,101446.84
2018-11-01T05:47:51.926Z,101452.09
2018-11-01T05:50:20.794Z,101446.47
2018-11-01T05:52:49.486Z,101445.45
2018-11-01T05:55:18.596Z,101439.29
2018-11-01T05:57:47.297Z,101437.67
2018-11-01T06:00:16.038Z,101431.55
2018-11-01T06:02:47.093Z,101431.70
2018-11-01T06:05:15.772Z,101428.98
2018-11-01T06:07:53.506Z,101426.91
2018-11-01T06:10:22.195Z,101423.67
2018-11-01T06:12:50.971Z,101418.88
2018-11-01T06:15:19.819Z,101422.86
2018-11-01T06:17:48.539Z,101415.62
2018-11-01T06:20:17.325Z,101409.43
2018-11-01T06:22:46.178Z,101401.98
2018-11-01T06:25:15.093Z,101399.47
2018-11-01T06:27:43.841Z,101398.81
2018-11-01T06:30:15.479Z,101402.45
2018-11-01T06:32:45.180Z,101399.73
2018-11-01T06:35:21.997Z,101402.84
2018-11-01T06:37:50.827Z,101403.45
2018-11-01T06:40:19.592Z,101413.28
2018-11-01T06:42:49.170Z,101407.44
2018-11-01T06:45:18.330Z,101405.04
2018-11-01T06:47:47.049Z,101408.30
2018-11-01T06:50:15.778Z,101410.17
2018-11-01T06:52:44.703Z,101408.43
2018-11-01T06:55:13.424Z,101400.33
2018-11-01T06:57:42.354Z,101390.22
2018-11-01T07:00:14.085Z,101384.91
2018-11-01T07:02:42.916Z,101376.27
2018-11-01T07:05:12.373Z,101373.22
2018-11-01T07:07:41.116Z,101377.75
2018-11-01T07:10:12.337Z,101375.09
2018-11-01T07:12:41.070Z,101379.61
2018-11-01T07:15:11.303Z,101375.81
2018-11-01T07:17:40.612Z,101379.17
2018-11-01T07:20:10.311Z,101385.70
2018-11-01T07:22:39.979Z,101384.30
2018-11-01T07:25:10.868Z,101390.61
2018-11-01T07:27:39.513Z,101389.32
2018-11-01T07:30:13.578Z,101381.53
2018-11-01T07:32:42.432Z,101387.19
2018-11-01T07:35:11.920Z,101387.83
2018-11-01T07:37:41.963Z,101396.00
2018-11-01T07:40:12.903Z,101385.52
2018-11-01T07:42:41.632Z,101384.30
2018-11-01T07:45:11.405Z,101376.77
2018-11-01T07:47:41.332Z,101376.77
2018-11-01T07:50:11.090Z,101384.19
2018-11-01T07:52:40.449Z,101377.77
2018-11-01T07:55:11.317Z,101363.38
2018-11-01T07:57:39.972Z,101351.69
2018-11-01T08:00:12.426Z,101348.44
2018-11-01T08:02:41.352Z,101334.47
2018-11-01T08:05:11.027Z,101323.70
2018-11-01T08:07:40.070Z,101335.61
2018-11-01T08:10:12.005Z,101323.52
2018-11-01T08:12:41.152Z,101313.16
2018-11-01T08:15:12.550Z,101307.99
2018-11-01T08:17:41.464Z,101309.11
2018-11-01T08:20:12.199Z,101298.08
2018-11-01T08:22:40.817Z,101305.19
2018-11-01T08:25:10.160Z,101305.91
2018-11-01T08:27:39.352Z,101306.30
2018-11-01T08:30:09.758Z,101315.56
2018-11-01T08:32:38.766Z,101309.58
2018-11-01T08:35:08.076Z,101308.61
2018-11-01T08:37:38.014Z,101308.77
2018-11-01T08:40:07.745Z,101309.55
2018-11-01T08:42:36.594Z,101312.42
2018-11-01T08:45:05.938Z,101312.01
2018-11-01T08:47:34.602Z,101312.64
2018-11-01T08:50:03.370Z,101306.77
2018-11-01T08:52:32.316Z,101308.64
2018-11-01T08:55:01.028Z,101309.62
2018-11-01T08:57:30.168Z,101300.37
2018-11-01T08:59:58.928Z,101293.70
2018-11-01T09:02:27.706Z,101294.53
2018-11-01T09:04:56.519Z,101292.00
2018-11-01T09:07:31.567Z,101295.16
2018-11-01T09:10:00.377Z,101296.48
2018-11-01T09:12:29.109Z,101295.59
2018-11-01T09:14:57.844Z,101293.94
2018-11-01T09:17:26.665Z,101283.05
2018-11-01T09:19:55.402Z,101286.53
2018-11-01T09:22:24.056Z,101275.50
2018-11-01T09:24:52.886Z,101276.59
2018-11-01T09:27:21.722Z,101283.92
2018-11-01T09:29:50.450Z,101301.34
2018-11-01T09:32:19.258Z,101300.31
2018-11-01T09:34:48.053Z,101303.17
2018-11-01T09:37:16.752Z,101304.11
2018-11-01T09:39:45.533Z,101312.67
2018-11-01T09:42:14.206Z,101310.00
2018-11-01T09:44:42.959Z,101314.25
2018-11-01T09:47:12.095Z,101319.03
2018-11-01T09:49:40.683Z,101313.95
2018-11-01T09:52:09.892Z,101308.04
2018-11-01T09:54:38.723Z,101299.95
2018-11-01T09:57:07.728Z,101283.69
2018-11-01T09:59:36.483Z,101289.78
2018-11-01T10:02:05.359Z,101274.90
2018-11-01T10:04:34.128Z,101279.12
2018-11-01T10:07:02.862Z,101277.98
2018-11-01T10:09:32.902Z,101268.17
2018-11-01T10:12:02.535Z,101268.13
2018-11-01T10:14:31.281Z,101261.59
2018-11-01T10:17:00.433Z,101252.81
2018-11-01T10:19:28.809Z,101240.41
2018-11-01T10:21:57.874Z,101238.24
2018-11-01T10:24:26.671Z,101229.54
2018-11-01T10:26:55.379Z,101219.51
2018-11-01T10:29:24.084Z,101213.86
2018-11-01T10:31:52.786Z,101211.57
2018-11-01T10:34:21.445Z,101191.42
2018-11-01T10:36:50.146Z,101193.91
2018-11-01T10:39:18.917Z,101192.87
2018-11-01T10:41:47.584Z,101183.20
2018-11-01T10:44:16.286Z,101178.08
2018-11-01T10:46:45.055Z,101175.88
2018-11-01T10:49:13.794Z,101175.91
2018-11-01T10:51:42.531Z,101165.97
2018-11-01T10:54:11.421Z,101167.22
2018-11-01T10:56:40.125Z,101170.53
2018-11-01T10:59:08.849Z,101164.02
2018-11-01T11:01:42.932Z,101162.91
2018-11-01T11:04:12.135Z,101167.08
2018-11-01T11:06:41.821Z,101159.08
2018-11-01T11:09:10.738Z,101156.03
2018-11-01T11:11:39.444Z,101160.59
2018-11-01T11:14:08.160Z,101161.24
2018-11-01T11:16:36.879Z,101164.79
2018-11-01T11:19:05.870Z,101156.75
2018-11-01T11:21:34.533Z,101152.97
2018-11-01T11:24:03.446Z,101156.30
2018-11-01T11:26:32.663Z,101155.64
2018-11-01T11:29:01.423Z,101154.98
2018-11-01T11:31:30.237Z,101153.17
2018-11-01T11:33:58.903Z,101152.48
2018-11-01T11:36:27.658Z,101153.14
2018-11-01T11:38:56.815Z,101152.78
2018-11-01T11:41:25.543Z,101149.48
2018-11-01T11:43:54.213Z,101146.44
2018-11-01T11:46:23.041Z,101147.56
2018-11-01T11:48:51.751Z,101135.68
2018-11-01T11:51:20.494Z,101133.60
2018-11-01T11:53:49.280Z,101129.31
2018-11-01T11:56:18.006Z,101120.36
2018-11-01T11:58:46.726Z,101131.23
2018-11-01T12:01:15.572Z,101120.76
2018-11-01T12:03:44.395Z,101118.09
2018-11-01T12:06:13.199Z,101120.24
2018-11-01T12:08:42.039Z,101114.92
2018-11-01T12:11:10.723Z,101109.39
2018-11-01T12:13:39.413Z,101113.69
2018-11-01T12:16:08.231Z,101109.08
2018-11-01T12:18:37.214Z,101112.34
2018-11-01T12:21:06.016Z,101096.06
2018-11-01T12:23:34.875Z,101093.41
2018-11-01T12:26:03.612Z,101091.77
2018-11-01T12:28:32.884Z,101094.53
2018-11-01T12:31:01.702Z,101092.94
2018-11-01T12:33:30.378Z,101079.41
2018-11-01T12:35:59.099Z,101081.27
2018-11-01T12:38:27.802Z,101077.78
2018-11-01T12:40:56.478Z,101076.21
2018-11-01T12:43:25.270Z,101074.88
2018-11-01T12:45:54.098Z,101075.80
2018-11-01T12:48:22.770Z,101070.91
2018-11-01T12:50:51.506Z,101066.19
2018-11-01T12:53:20.238Z,101058.21
2018-11-01T12:55:48.938Z,101053.27
2018-11-01T12:58:17.623Z,101056.92
2018-11-01T13:00:46.364Z,101052.49
2018-11-01T13:03:15.051Z,101047.72
2018-11-01T13:05:46.791Z,101036.50
2018-11-01T13:08:15.658Z,101031.61
2018-11-01T13:10:44.422Z,101023.37
2018-11-01T13:13:13.085Z,101015.01
2018-11-01T13:15:41.938Z,101018.72
2018-11-01T13:18:10.694Z,101017.05
2018-11-01T13:20:39.341Z,101018.91
2018-11-01T13:23:08.106Z,101023.21
2018-11-01T13:25:36.794Z,101016.87
2018-11-01T13:28:05.591Z,101020.89
2018-11-01T13:30:34.642Z,101012.27
2018-11-01T13:33:03.367Z,101017.69
2018-11-01T13:35:32.948Z,101016.34
2018-11-01T13:38:01.718Z,101012.22
2018-11-01T13:40:30.734Z,101008.70
2018-11-01T13:42:59.198Z,101001.67
2018-11-01T13:45:27.946Z,100997.66
2018-11-01T13:47:56.690Z,100985.87
2018-11-01T13:50:25.345Z,100986.77
2018-11-01T13:52:54.098Z,100986.94
2018-11-01T13:55:22.815Z,100986.99
2018-11-01T13:57:51.632Z,100982.86
2018-11-01T14:00:20.381Z,100975.97
2018-11-01T14:02:49.194Z,100984.02
2018-11-01T14:05:17.994Z,100981.33
2018-11-01T14:07:46.974Z,100981.80
2018-11-01T14:10:16.422Z,100973.85
2018-11-01T14:12:45.192Z,100970.81
2018-11-01T14:15:14.421Z,100973.27
2018-11-01T14:17:42.758Z,100971.56
2018-11-01T14:20:12.613Z,100979.32
2018-11-01T14:22:41.499Z,100976.75
2018-11-01T14:25:11.278Z,100987.29
2018-11-01T14:27:40.000Z,100984.91
2018-11-01T14:30:11.904Z,100988.67
2018-11-01T14:32:41.184Z,100981.29
2018-11-01T14:35:10.530Z,100989.03
2018-11-01T14:37:39.372Z,100989.54
2018-11-01T14:40:10.322Z,100992.28
2018-11-01T14:42:39.149Z,100996.25
2018-11-01T14:45:08.340Z,100993.94
2018-11-01T14:47:37.056Z,100981.61
2018-11-01T14:50:07.010Z,100980.75
2018-11-01T14:52:36.081Z,100977.23
2018-11-01T14:55:06.189Z,100975.90
2018-11-01T14:57:34.833Z,100979.34
2018-11-01T15:00:03.104Z,100990.41
2018-11-01T15:02:31.883Z,100983.86
2018-11-01T15:05:00.589Z,100988.59
2018-11-01T15:07:29.354Z,101003.53
2018-11-01T15:09:58.288Z,100989.39
2018-11-01T15:12:27.004Z,100987.37
2018-11-01T15:14:55.795Z,100975.07
2018-11-01T15:17:24.461Z,100972.00
2018-11-01T15:19:53.139Z,100971.53
2018-11-01T15:22:21.866Z,100960.01
2018-11-01T15:24:50.590Z,100962.03
2018-11-01T15:27:19.280Z,100949.77
2018-11-01T15:29:48.299Z,100946.73
2018-11-01T15:32:22.201Z,100939.23
2018-11-01T15:34:51.014Z,100932.03
2018-11-01T15:37:19.827Z,100931.06
2018-11-01T15:39:48.986Z,100934.96
2018-11-01T15:42:18.013Z,100938.14
2018-11-01T15:44:47.247Z,100938.17
2018-11-01T15:47:15.956Z,100937.12
2018-11-01T15:49:45.080Z,100931.67
2018-11-01T15:52:13.764Z,100917.72
2018-11-01T15:54:43.410Z,100912.20
2018-11-01T15:57:12.133Z,100912.02
2018-11-01T15:59:40.925Z,100908.08
2018-11-01T16:02:09.578Z,100919.35
2018-11-01T16:04:38.391Z,100921.73
2018-11-01T16:07:07.338Z,100923.47
2018-11-01T16:09:36.031Z,100913.78
2018-11-01T16:12:05.007Z,100902.26
2018-11-01T16:14:33.707Z,100898.06
2018-11-01T16:17:03.237Z,100902.00
2018-11-01T16:19:32.115Z,100913.06
2018-11-01T16:22:00.742Z,100906.48
2018-11-01T16:24:29.405Z,100906.41
2018-11-01T16:26:58.334Z,100906.77
2018-11-01T16:29:27.084Z,100924.33
2018-11-01T16:31:55.794Z,100927.19
2018-11-01T16:34:24.653Z,100918.41
2018-11-01T16:36:53.523Z,100917.89
2018-11-01T16:39:22.186Z,100918.25
2018-11-01T16:41:50.959Z,100918.65
2018-11-01T16:44:19.726Z,100915.40
2018-11-01T16:46:49.615Z,100928.66
2018-11-01T16:49:18.327Z,100927.58
2018-11-01T16:51:47.064Z,100917.39
2018-11-01T16:54:15.735Z,100903.34
2018-11-01T16:56:44.562Z,100895.83
2018-11-01T16:59:13.308Z,100887.08
2018-11-01T17:01:42.090Z,100883.06
2018-11-01T17:04:10.930Z,100888.30
2018-11-01T17:06:39.606Z,100890.61
2018-11-01T17:09:09.842Z,100898.95
2018-11-01T17:11:38.786Z,100899.50
2018-11-01T17:14:07.785Z,100891.69
2018-11-01T17:16:37.024Z,100903.72
2018-11-01T17:19:06.565Z,100905.13
2018-11-01T17:21:35.229Z,100905.47
2018-11-01T17:24:04.134Z,100917.89
2018-11-01T17:26:33.437Z,100920.74
2018-11-01T17:29:02.140Z,100929.76
2018-11-01T17:31:30.879Z,100928.36
2018-11-01T17:33:59.819Z,100923.17
2018-11-01T17:36:28.561Z,100933.22
2018-11-01T17:38:57.247Z,100936.19
2018-11-01T17:41:26.000Z,100927.70
2018-11-01T17:43:54.805Z,100936.64
2018-11-01T17:46:23.565Z,100930.73
2018-11-01T17:48:52.310Z,100925.69
2018-11-01T17:51:21.066Z,100933.70
2018-11-01T17:53:49.768Z,100939.98
2018-11-01T17:56:18.598Z,100938.45
2018-11-01T17:58:47.303Z,100943.42
2018-11-01T18:01:16.003Z,100946.66
2018-11-01T18:03:44.739Z,100955.66
2018-11-01T18:06:13.533Z,100966.13
2018-11-01T18:08:42.312Z,100963.09
2018-11-01T18:11:11.281Z,100961.00
2018-11-01T18:13:39.991Z,100959.47
2018-11-01T18:16:08.963Z,100956.78
2018-11-01T18:18:37.787Z,100950.31
2018-11-01T18:21:06.739Z,100952.48
2018-11-01T18:23:35.450Z,100950.31
2018-11-01T18:26:04.251Z,100952.78
2018-11-01T18:28:33.411Z,100942.59
2018-11-01T18:31:02.102Z,100943.81
2018-11-01T18:33:30.972Z,100943.25
2018-11-01T18:35:59.678Z,100936.00
2018-11-01T18:38:28.457Z,100939.63
2018-11-01T18:40:57.373Z,100944.46
2018-11-01T18:43:26.415Z,100954.98
2018-11-01T18:45:55.298Z,100945.80
2018-11-01T18:48:24.231Z,100955.08
2018-11-01T18:50:53.136Z,100957.75
2018-11-01T18:53:21.865Z,100951.66
2018-11-01T18:55:50.712Z,100955.56
2018-11-01T18:58:19.466Z,100955.55
2018-11-01T19:00:48.717Z,100959.66
2018-11-01T19:03:21.558Z,100970.17
2018-11-01T19:05:50.448Z,100969.20
2018-11-01T19:08:19.236Z,100964.53
2018-11-01T19:10:48.341Z,100963.47
2018-11-01T19:13:17.197Z,100958.55
2018-11-01T19:15:45.976Z,100950.44
2018-11-01T19:18:14.899Z,100954.80
2018-11-01T19:20:43.598Z,100960.05
2018-11-01T19:23:12.306Z,100964.62
2018-11-01T19:25:41.164Z,100966.83
2018-11-01T19:28:09.915Z,100962.25
2018-11-01T19:30:38.635Z,100963.28
2018-11-01T19:33:07.836Z,100961.38
2018-11-01T19:35:36.550Z,100961.48
2018-11-01T19:38:05.290Z,100958.62
2018-11-01T19:40:34.134Z,100947.83
2018-11-01T19:43:03.614Z,100953.74
2018-11-01T19:45:32.334Z,100942.98
2018-11-01T19:48:01.349Z,100942.13
2018-11-01T19:50:30.070Z,100939.85
2018-11-01T19:52:58.770Z,100938.02
2018-11-01T19:55:27.530Z,100940.02
2018-11-01T19:57:56.269Z,100944.02
2018-11-01T20:00:24.942Z,100944.71
2018-11-01T20:02:53.855Z,100948.52
2018-11-01T20:05:22.483Z,100952.53
2018-11-01T20:07:51.269Z,100951.75
2018-11-01T20:10:20.228Z,100952.03
2018-11-01T20:12:48.920Z,100951.56
2018-11-01T20:15:17.639Z,100951.75
2018-11-01T20:17:46.558Z,100950.05
2018-11-01T20:20:15.655Z,100955.17
2018-11-01T20:22:45.552Z,100957.38
2018-11-01T20:25:14.429Z,100961.58
2018-11-01T20:27:43.277Z,100967.97
2018-11-01T20:30:13.907Z,100966.23
2018-11-01T20:32:43.396Z,100976.64
2018-11-01T20:35:13.297Z,100975.97
2018-11-01T20:37:42.527Z,100974.20
2018-11-01T20:40:11.455Z,100978.10
2018-11-01T20:42:40.707Z,100978.77
2018-11-01T20:45:10.821Z,100991.13
2018-11-01T20:47:39.786Z,100983.80
2018-11-01T20:50:09.791Z,100995.98
2018-11-01T20:52:38.478Z,100997.92
2018-11-01T20:55:07.459Z,100993.01
2018-11-01T20:57:36.232Z,100993.89
2018-11-01T21:00:05.830Z,100996.81
2018-11-01T21:02:34.835Z,101000.91
2018-11-01T21:05:03.824Z,101011.22
2018-11-01T21:07:32.516Z,101010.33
2018-11-01T21:10:01.270Z,101017.09
2018-11-01T21:12:29.988Z,101013.21
2018-11-01T21:14:58.688Z,101023.03
2018-11-01T21:17:27.556Z,101016.92
2018-11-01T21:19:56.391Z,101017.53
2018-11-01T21:22:25.255Z,101017.70
2018-11-01T21:24:54.303Z,101010.75
2018-11-01T21:27:23.032Z,101017.53
2018-11-01T21:29:51.739Z,101022.09
2018-11-01T21:32:20.586Z,101026.56
2018-11-01T21:34:49.314Z,101027.03
2018-11-01T21:37:18.010Z,101025.91
2018-11-01T21:39:46.921Z,101032.92
2018-11-01T21:42:15.638Z,101032.95
2018-11-01T21:44:44.593Z,101040.44
2018-11-01T21:47:14.323Z,101035.67
2018-11-01T21:49:43.024Z,101035.78
2018-11-01T21:52:11.762Z,101041.27
2018-11-01T21:54:40.619Z,101038.22
2018-11-01T21:57:09.306Z,101040.81
2018-11-01T21:59:38.016Z,101036.69
2018-11-01T22:02:06.884Z,101027.66
2018-11-01T22:04:35.620Z,101034.80
2018-11-01T22:07:04.420Z,101040.28
2018-11-01T22:09:33.907Z,101058.58
2018-11-01T22:12:02.690Z,101055.05
2018-11-01T22:14:31.400Z,101046.48
2018-11-01T22:17:00.195Z,101044.78
2018-11-01T22:19:28.976Z,101045.03
2018-11-01T22:21:57.810Z,101058.25
2018-11-01T22:24:26.706Z,101063.03
2018-11-01T22:26:55.447Z,101079.12
2018-11-01T22:29:24.170Z,101078.47
2018-11-01T22:31:53.257Z,101081.57
2018-11-01T22:34:22.094Z,101079.39
2018-11-01T22:36:50.845Z,101083.95
2018-11-01T22:39:19.665Z,101084.48
2018-11-01T22:41:48.374Z,101073.86
2018-11-01T22:44:17.048Z,101088.40
2018-11-01T22:46:45.872Z,101081.26
2018-11-01T22:49:14.570Z,101079.92
2018-11-01T22:51:43.280Z,101081.20
2018-11-01T22:54:12.092Z,101082.19
2018-11-01T22:56:40.787Z,101090.66
2018-11-01T22:59:09.565Z,101089.88
2018-11-01T23:01:38.947Z,101079.23
2018-11-01T23:04:07.855Z,101075.63
2018-11-01T23:06:36.614Z,101068.59
2018-11-01T23:09:07.741Z,101059.04
2018-11-01T23:11:36.480Z,101073.39
2018-11-01T23:14:05.307Z,101076.06
2018-11-01T23:16:34.431Z,101079.27
2018-11-01T23:19:04.018Z,101089.17
2018-11-01T23:21:32.710Z,101083.62
2018-11-01T23:24:01.471Z,101091.63
2018-11-01T23:26:31.204Z,101094.58
2018-11-01T23:29:00.071Z,101099.23
2018-11-01T23:31:28.834Z,101101.49
2018-11-01T23:33:57.616Z,101104.34
2018-11-01T23:36:25.448Z,101106.80
2018-11-01T23:38:59.302Z,101105.00
2018-11-01T23:41:33.078Z,101109.09
2018-11-01T23:44:06.973Z,101113.52
2018-11-01T23:46:40.909Z,101119.10
2018-11-01T23:49:17.546Z,101119.20
2018-11-01T23:52:49.142Z,101114.94
2018-11-01T23:55:17.995Z,101111.58
2018-11-01T23:57:46.743Z,101122.34
